Anjeliersgracht — PCGQ — position and weather

sailwx.info

Track history (hours):
 
Tides and Currents Weather Stations Pressure Air Temp Water Temp Dewpoint Dewpoint Depression Visibility Wind Speed Wind Dir Waves Ship Positions

Anjeliersgracht

Last reported at 2014-Oct-31 21:04 UTC. Time now 2014-Nov-01 06:59 UTC.
Position N 29°55' W 090°05'.

Length 130 m; beam 19 m; draft 9 m.

Type: Cargo ship. MMSI: 244716000.

Date/timePositionNaut miles runAvg speedWind from/ knotsBaromVisibWave heightAir tempDewpointWater temp
2014-Oct-31 21:04N 29°55' W 090°05'0 0.0
2014-Oct-31 20:10N 29°55' W 090°05'0 0.0
2014-Oct-31 15:25N 29°55' W 090°05'0 0.0
2014-Oct-31 14:16N 29°55' W 090°05'0 0.0
2014-Oct-31 13:31N 29°55' W 090°05'0 0.0
2014-Oct-31 08:22N 29°55' W 090°05'0 0.0
2014-Oct-31 01:21N 29°55' W 090°05'0 0.0
2014-Oct-31 00:27N 29°55' W 090°05'0 0.0
2014-Oct-30 17:18N 29°55' W 090°05'0 0.0
2014-Oct-30 15:03N 29°55' W 090°05'2 1.4
2014-Oct-30 13:24N 29°57' W 090°03'250 6.8
2014-Oct-29 00:33N 29°23' W 094°48'1111.5
2014-Oct-28 23:33N 29°33' W 094°55'1111.1
2014-Oct-28 22:33N 29°42' W 095°01'6 5.6
2014-Oct-28 21:33N 29°44' W 095°07'7 6.0
2014-Oct-28 20:26N 29°43' W 095°15'2 0.4
2014-Oct-28 14:21N 29°45' W 095°17'0 0.0
2014-Oct-28 13:15N 29°45' W 095°17'0 0.0
2014-Oct-28 12:27N 29°45' W 095°17'0 0.0
2014-Oct-27 12:14N 29°45' W 095°17'0 0.0
2014-Oct-27 11:29N 29°45' W 095°17'0 0.0
2014-Oct-27 10:26N 29°45' W 095°17'0 0.0
2014-Oct-27 09:32N 29°45' W 095°17'0 0.0
2014-Oct-27 07:26N 29°45' W 095°17'0 0.0
2014-Oct-27 06:32N 29°45' W 095°17'0 0.0
2014-Oct-27 05:32N 29°45' W 095°17'0 0.0
2014-Oct-27 00:30N 29°45' W 095°17'3 2.8
2014-Oct-26 23:33N 29°43' W 095°14'6 5.6
2014-Oct-26 22:33N 29°44' W 095°08'6 5.7
2014-Oct-26 21:33N 29°44' W 095°02'1211.8
2014-Oct-26 20:34N 29°34' W 094°55'1313.1
2014-Oct-26 19:34N 29°22' W 094°48'11 0.4
2014-Oct-25 15:03N 29°20' W 094°36'0 0.0
2014-Oct-25 14:15N 29°20' W 094°36'  
Track history (hours):
 
Tides and Currents Weather Stations Pressure Air Temp Water Temp Dewpoint Dewpoint Depression Visibility Wind Speed Wind Dir Waves Ship Positions

Anjeliersgracht

Last reported at 2014-Oct-31 21:04 UTC. Time now 2014-Nov-01 06:59 UTC.
Position N 29°55' W 090°05'.

Length 130 m; beam 19 m; draft 9 m.

Type: Cargo ship. MMSI: 244716000.

Date/timePositionNaut miles runAvg speedWind from/ knotsBaromVisibWave heightAir tempDewpointWater temp
2014-Oct-31 21:04N 29°55' W 090°05'0 0.0
2014-Oct-31 20:10N 29°55' W 090°05'0 0.0
2014-Oct-31 15:25N 29°55' W 090°05'0 0.0
2014-Oct-31 14:16N 29°55' W 090°05'0 0.0
2014-Oct-31 13:31N 29°55' W 090°05'0 0.0
2014-Oct-31 08:22N 29°55' W 090°05'0 0.0
2014-Oct-31 01:21N 29°55' W 090°05'0 0.0
2014-Oct-31 00:27N 29°55' W 090°05'0 0.0
2014-Oct-30 17:18N 29°55' W 090°05'0 0.0
2014-Oct-30 15:03N 29°55' W 090°05'2 1.4
2014-Oct-30 13:24N 29°57' W 090°03'250 6.8
2014-Oct-29 00:33N 29°23' W 094°48'1111.5
2014-Oct-28 23:33N 29°33' W 094°55'1111.1
2014-Oct-28 22:33N 29°42' W 095°01'6 5.6
2014-Oct-28 21:33N 29°44' W 095°07'7 6.0
2014-Oct-28 20:26N 29°43' W 095°15'2 0.4
2014-Oct-28 14:21N 29°45' W 095°17'0 0.0
2014-Oct-28 13:15N 29°45' W 095°17'0 0.0
2014-Oct-28 12:27N 29°45' W 095°17'0 0.0
2014-Oct-27 12:14N 29°45' W 095°17'0 0.0
2014-Oct-27 11:29N 29°45' W 095°17'0 0.0
2014-Oct-27 10:26N 29°45' W 095°17'0 0.0
2014-Oct-27 09:32N 29°45' W 095°17'0 0.0
2014-Oct-27 07:26N 29°45' W 095°17'0 0.0
2014-Oct-27 06:32N 29°45' W 095°17'0 0.0
2014-Oct-27 05:32N 29°45' W 095°17'0 0.0
2014-Oct-27 00:30N 29°45' W 095°17'3 2.8
2014-Oct-26 23:33N 29°43' W 095°14'6 5.6
2014-Oct-26 22:33N 29°44' W 095°08'6 5.7
2014-Oct-26 21:33N 29°44' W 095°02'1211.8
2014-Oct-26 20:34N 29°34' W 094°55'1313.1
2014-Oct-26 19:34N 29°22' W 094°48'11 0.4
2014-Oct-25 15:03N 29°20' W 094°36'0 0.0
2014-Oct-25 14:15N 29°20' W 094°36'  

Dump ship's entire track history